createdAt,value
2018-02-09T00:02:03.080Z,4.00
2018-02-09T00:04:30.628Z,3.90
2018-02-09T00:06:58.174Z,4.00
2018-02-09T00:09:25.712Z,4.10
2018-02-09T00:11:53.260Z,4.10
2018-02-09T00:14:20.830Z,4.10
2018-02-09T00:16:48.350Z,4.20
2018-02-09T00:19:15.906Z,4.20
2018-02-09T00:21:44.248Z,4.30
2018-02-09T00:24:11.827Z,4.20
2018-02-09T00:26:40.297Z,4.20
2018-02-09T00:29:08.765Z,4.30
2018-02-09T00:31:36.342Z,4.30
2018-02-09T00:34:03.899Z,4.30
2018-02-09T00:36:32.233Z,4.30
2018-02-09T00:38:59.851Z,4.30
2018-02-09T00:41:28.722Z,4.30
2018-02-09T00:43:56.271Z,4.20
2018-02-09T00:46:23.895Z,4.20
2018-02-09T00:48:51.971Z,4.20
2018-02-09T00:51:19.561Z,4.20
2018-02-09T00:53:47.875Z,4.20
2018-02-09T00:56:15.410Z,4.20
2018-02-09T00:58:43.726Z,4.20
2018-02-09T01:01:12.582Z,4.20
2018-02-09T01:03:40.931Z,4.30
2018-02-09T01:06:09.249Z,4.30
2018-02-09T01:08:36.786Z,4.30
2018-02-09T01:11:04.376Z,4.30
2018-02-09T01:13:31.899Z,4.30
2018-02-09T01:16:00.210Z,4.40
2018-02-09T01:18:27.787Z,4.40
2018-02-09T01:20:55.302Z,4.20
2018-02-09T01:23:22.811Z,4.20
2018-02-09T01:25:50.418Z,4.30
2018-02-09T01:28:18.732Z,4.30
2018-02-09T01:30:46.264Z,4.30
2018-02-09T01:33:14.114Z,4.30
2018-02-09T01:35:42.423Z,4.30
2018-02-09T01:38:10.191Z,4.30
2018-02-09T01:40:38.331Z,4.30
2018-02-09T01:43:06.660Z,4.20
2018-02-09T01:45:34.273Z,4.20
2018-02-09T01:48:02.579Z,3.90
2018-02-09T01:50:30.135Z,3.90
2018-02-09T01:52:57.677Z,3.90
2018-02-09T01:55:25.236Z,3.80
2018-02-09T01:57:53.573Z,3.90
2018-02-09T02:00:21.234Z,3.90
2018-02-09T02:02:49.138Z,3.80
2018-02-09T02:05:16.772Z,4.00
2018-02-09T02:07:44.308Z,4.00
2018-02-09T02:10:12.083Z,3.90
2018-02-09T02:12:41.262Z,3.80
2018-02-09T02:15:09.562Z,3.80
2018-02-09T02:17:38.091Z,3.80
2018-02-09T02:20:06.500Z,3.80
2018-02-09T02:22:34.755Z,3.70
2018-02-09T02:25:04.048Z,3.90
2018-02-09T02:27:32.338Z,3.90
2018-02-09T02:29:59.881Z,3.90
2018-02-09T02:32:28.310Z,4.00
2018-02-09T02:34:57.969Z,4.00
2018-02-09T02:37:25.517Z,3.90
2018-02-09T02:39:53.588Z,3.80
2018-02-09T02:42:21.920Z,3.70
2018-02-09T02:44:50.040Z,3.70
2018-02-09T02:47:17.622Z,3.80
2018-02-09T02:49:45.205Z,3.70
2018-02-09T02:52:12.786Z,3.80
2018-02-09T02:54:40.321Z,3.90
2018-02-09T02:57:07.898Z,3.80
2018-02-09T02:59:35.660Z,3.80
2018-02-09T03:02:03.695Z,3.90
2018-02-09T03:04:32.471Z,3.90
2018-02-09T03:07:00.088Z,3.90
2018-02-09T03:09:28.449Z,3.90
2018-02-09T03:11:56.003Z,3.90
2018-02-09T03:14:23.579Z,4.00
2018-02-09T03:16:51.118Z,4.00
2018-02-09T03:19:18.647Z,4.00
2018-02-09T03:21:47.042Z,4.10
2018-02-09T03:24:14.593Z,4.10
2018-02-09T03:26:42.139Z,4.10
2018-02-09T03:29:10.514Z,4.10
2018-02-09T03:31:38.052Z,4.10
2018-02-09T03:34:05.604Z,4.00
2018-02-09T03:36:34.591Z,4.10
2018-02-09T03:39:02.123Z,4.20
2018-02-09T03:41:29.694Z,4.20
2018-02-09T03:43:57.322Z,4.20
2018-02-09T03:46:24.864Z,4.30
2018-02-09T03:48:53.841Z,4.30
2018-02-09T03:51:21.458Z,4.30
2018-02-09T03:53:49.042Z,4.40
2018-02-09T03:56:16.607Z,4.30
2018-02-09T03:58:44.143Z,4.30
2018-02-09T04:01:11.708Z,4.20
2018-02-09T04:03:39.391Z,4.00
2018-02-09T04:06:07.837Z,4.00
2018-02-09T04:08:35.369Z,3.90
2018-02-09T04:11:04.536Z,4.00
2018-02-09T04:13:32.079Z,3.90
2018-02-09T04:15:59.669Z,3.80
2018-02-09T04:18:27.279Z,3.60
2018-02-09T04:20:56.156Z,3.60
2018-02-09T04:23:25.285Z,3.60
2018-02-09T04:25:52.853Z,3.60
2018-02-09T04:28:20.899Z,3.60
2018-02-09T04:30:48.486Z,3.70
2018-02-09T04:33:16.058Z,3.70
2018-02-09T04:35:43.599Z,3.70
2018-02-09T04:38:11.799Z,3.60
2018-02-09T04:40:39.361Z,3.70
2018-02-09T04:43:06.975Z,3.70
2018-02-09T04:45:36.965Z,3.70
2018-02-09T04:48:04.546Z,3.70
2018-02-09T04:50:32.103Z,3.70
2018-02-09T04:53:00.458Z,3.60
2018-02-09T04:55:28.032Z,3.60
2018-02-09T04:57:57.038Z,3.30
2018-02-09T05:00:24.615Z,3.30
2018-02-09T05:02:52.353Z,3.30
2018-02-09T05:05:19.911Z,3.40
2018-02-09T05:07:47.653Z,3.40
2018-02-09T05:10:16.129Z,3.40
2018-02-09T05:12:43.694Z,3.40
2018-02-09T05:15:11.280Z,3.50
2018-02-09T05:17:38.872Z,3.60
2018-02-09T05:20:07.125Z,3.60
2018-02-09T05:22:34.663Z,3.70
2018-02-09T05:25:03.008Z,3.60
2018-02-09T05:27:30.590Z,3.60
2018-02-09T05:29:58.935Z,3.60
2018-02-09T05:32:26.959Z,3.60
2018-02-09T05:34:54.498Z,3.60
2018-02-09T05:37:22.935Z,3.70
2018-02-09T05:39:50.480Z,3.60
2018-02-09T05:42:18.011Z,3.50
2018-02-09T05:44:46.376Z,3.70
2018-02-09T05:47:13.915Z,3.70
2018-02-09T05:49:43.058Z,3.80
2018-02-09T05:52:13.106Z,3.70
2018-02-09T05:54:40.921Z,3.70
2018-02-09T05:57:08.434Z,3.70
2018-02-09T05:59:35.988Z,3.90
2018-02-09T06:02:03.549Z,3.80
2018-02-09T06:04:31.123Z,3.90
2018-02-09T06:06:59.912Z,3.90
2018-02-09T06:09:28.547Z,3.70
2018-02-09T06:11:56.114Z,3.60
2018-02-09T06:14:24.435Z,3.80
2018-02-09T06:16:52.593Z,3.80
2018-02-09T06:19:20.744Z,3.80
2018-02-09T06:21:48.287Z,3.80
2018-02-09T06:24:15.854Z,3.80
2018-02-09T06:26:44.216Z,3.70
2018-02-09T06:29:11.773Z,3.70
2018-02-09T06:31:40.399Z,3.60
2018-02-09T06:34:08.038Z,3.80
2018-02-09T06:36:36.508Z,3.80
2018-02-09T06:39:04.138Z,3.70
2018-02-09T06:41:31.701Z,3.50
2018-02-09T06:43:59.888Z,3.50
2018-02-09T06:46:27.480Z,3.60
2018-02-09T06:48:56.413Z,3.60
2018-02-09T06:51:24.019Z,3.70
2018-02-09T06:53:52.945Z,3.90
2018-02-09T06:56:20.521Z,3.90
2018-02-09T06:58:48.058Z,3.90
2018-02-09T07:01:15.646Z,3.80
2018-02-09T07:03:44.840Z,3.80
2018-02-09T07:06:12.471Z,3.90
2018-02-09T07:08:40.398Z,3.90
2018-02-09T07:11:08.252Z,4.00
2018-02-09T07:13:37.303Z,4.00
2018-02-09T07:16:04.889Z,4.00
2018-02-09T07:18:32.428Z,4.10
2018-02-09T07:21:00.071Z,4.10
2018-02-09T07:23:28.385Z,4.10
2018-02-09T07:25:56.018Z,4.10
2018-02-09T07:28:23.929Z,4.00
2018-02-09T07:30:52.653Z,4.00
2018-02-09T07:33:20.270Z,3.90
2018-02-09T07:35:48.512Z,4.00
2018-02-09T07:38:16.171Z,4.00
2018-02-09T07:40:44.516Z,4.00
2018-02-09T07:43:12.453Z,4.00
2018-02-09T07:45:39.952Z,3.90
2018-02-09T07:48:07.548Z,4.00
2018-02-09T07:50:35.163Z,4.00
2018-02-09T07:53:02.763Z,4.10
2018-02-09T07:55:31.096Z,3.90
2018-02-09T07:57:58.724Z,3.90
2018-02-09T08:00:26.273Z,3.70
2018-02-09T08:02:53.853Z,3.60
2018-02-09T08:05:21.477Z,3.70
2018-02-09T08:07:49.823Z,4.00
2018-02-09T08:10:17.577Z,3.90
2018-02-09T08:12:45.125Z,3.90
2018-02-09T08:15:12.719Z,4.00
2018-02-09T08:17:40.910Z,4.10
2018-02-09T08:20:09.305Z,4.10
2018-02-09T08:35:32.649Z,4.10
2018-02-09T08:38:00.206Z,4.00
2018-02-09T08:40:27.767Z,4.10
2018-02-09T08:42:55.344Z,4.10
2018-02-09T08:45:23.008Z,4.00
2018-02-09T08:47:51.478Z,3.80
2018-02-09T08:50:19.048Z,3.70
2018-02-09T08:52:46.612Z,3.90
2018-02-09T08:55:14.230Z,3.90
2018-02-09T08:57:41.815Z,3.80
2018-02-09T09:00:09.352Z,3.80
2018-02-09T09:02:36.885Z,3.90
2018-02-09T09:05:04.518Z,4.00
2018-02-09T09:07:32.061Z,3.90
2018-02-09T09:09:59.598Z,3.60
2018-02-09T09:12:27.216Z,3.60
2018-02-09T09:14:54.820Z,3.70
2018-02-09T09:17:23.636Z,3.80
2018-02-09T09:19:51.572Z,3.70
2018-02-09T09:22:19.164Z,3.60
2018-02-09T09:24:46.703Z,3.70
2018-02-09T09:27:14.307Z,3.80
2018-02-09T09:29:43.509Z,3.90
2018-02-09T09:32:11.049Z,3.90
2018-02-09T09:34:38.629Z,4.10
2018-02-09T09:37:06.176Z,3.90
2018-02-09T09:39:33.744Z,3.80
2018-02-09T09:42:01.305Z,3.90
2018-02-09T09:44:28.852Z,3.80
2018-02-09T09:46:56.461Z,3.80
2018-02-09T09:49:24.792Z,3.80
2018-02-09T09:51:52.682Z,3.80
2018-02-09T09:54:20.196Z,3.90
2018-02-09T09:56:47.741Z,3.80
2018-02-09T09:59:16.075Z,3.60
2018-02-09T10:01:43.628Z,3.60
2018-02-09T10:04:11.165Z,3.70
2018-02-09T10:06:39.272Z,3.80
2018-02-09T10:09:06.847Z,3.90
2018-02-09T10:11:34.451Z,3.80
2018-02-09T10:14:02.028Z,3.80
2018-02-09T10:16:29.585Z,3.90
2018-02-09T10:18:58.498Z,4.00
2018-02-09T10:21:27.265Z,4.20
2018-02-09T10:23:54.830Z,4.30
2018-02-09T10:26:23.122Z,4.40
2018-02-09T10:28:51.132Z,4.50
2018-02-09T10:31:20.045Z,4.60
2018-02-09T10:46:42.628Z,4.60
2018-02-09T10:49:10.272Z,4.20
2018-02-09T10:51:38.444Z,4.30
2018-02-09T10:54:06.712Z,4.30
2018-02-09T10:56:34.225Z,4.40
2018-02-09T10:59:02.606Z,4.50
2018-02-09T11:01:41.474Z,4.50
2018-02-09T11:04:09.015Z,4.60
2018-02-09T11:06:36.710Z,4.60
2018-02-09T11:09:04.331Z,4.70
2018-02-09T11:11:32.217Z,4.70
2018-02-09T11:13:59.805Z,4.60
2018-02-09T11:16:27.371Z,4.70
2018-02-09T11:18:54.920Z,4.80
2018-02-09T11:21:22.526Z,4.90
2018-02-09T11:23:50.135Z,4.80
2018-02-09T11:26:17.781Z,4.90
2018-02-09T11:28:45.448Z,4.80
2018-02-09T11:31:13.919Z,4.70
2018-02-09T11:33:42.348Z,4.60
2018-02-09T11:36:10.812Z,4.70
2018-02-09T11:38:38.382Z,4.70
2018-02-09T11:41:07.730Z,4.80
2018-02-09T11:43:36.134Z,4.60
2018-02-09T11:46:04.472Z,4.80
2018-02-09T11:48:32.019Z,4.80
2018-02-09T11:50:59.606Z,4.80
2018-02-09T11:53:27.956Z,4.80
2018-02-09T11:55:56.103Z,4.80
2018-02-09T11:58:23.620Z,4.60
2018-02-09T12:00:51.196Z,4.70
2018-02-09T12:03:18.747Z,4.60
2018-02-09T12:05:46.303Z,4.70
2018-02-09T12:08:13.971Z,4.80
2018-02-09T12:10:41.508Z,5.00
2018-02-09T12:13:09.072Z,4.90
2018-02-09T12:15:37.442Z,5.00
2018-02-09T12:18:06.254Z,5.00
2018-02-09T12:20:34.440Z,5.00
2018-02-09T12:23:02.058Z,4.80
2018-02-09T12:25:29.597Z,4.90
2018-02-09T12:27:57.145Z,5.00
2018-02-09T12:30:24.719Z,4.90
2018-02-09T12:32:52.280Z,4.90
2018-02-09T12:35:20.611Z,5.10
2018-02-09T12:37:48.168Z,5.10
2018-02-09T12:40:15.854Z,5.20
2018-02-09T12:42:43.382Z,5.20
2018-02-09T12:45:10.929Z,5.20
2018-02-09T12:47:39.309Z,5.10
2018-02-09T12:50:07.616Z,5.10
2018-02-09T12:52:35.286Z,5.00
2018-02-09T12:55:02.870Z,5.00
2018-02-09T12:57:30.426Z,4.90
2018-02-09T12:59:57.988Z,5.00
2018-02-09T13:02:25.531Z,5.10
2018-02-09T13:04:53.086Z,5.30
2018-02-09T13:07:20.664Z,5.40
2018-02-09T13:09:49.017Z,5.50
2018-02-09T13:15:22.277Z,5.00
2018-02-09T13:17:50.082Z,4.90
2018-02-09T13:20:17.622Z,5.00
2018-02-09T13:22:56.895Z,4.80
2018-02-09T13:25:24.523Z,4.80
2018-02-09T13:27:53.498Z,5.10
2018-02-09T13:30:21.916Z,5.10
2018-02-09T13:33:01.266Z,5.10
2018-02-09T13:35:28.897Z,5.20
2018-02-09T13:37:57.242Z,5.30
2018-02-09T13:40:24.876Z,5.30
2018-02-09T13:42:52.463Z,5.40
2018-02-09T13:45:20.012Z,5.50
2018-02-09T13:47:47.596Z,5.30
2018-02-09T13:50:15.210Z,5.10
2018-02-09T13:52:42.746Z,5.20
2018-02-09T13:55:10.443Z,5.30
2018-02-09T13:57:38.022Z,5.40
2018-02-09T14:00:06.463Z,5.30
2018-02-09T14:02:34.724Z,5.40
2018-02-09T14:05:02.320Z,5.20
2018-02-09T14:07:30.098Z,5.30
2018-02-09T14:09:57.672Z,5.20
2018-02-09T14:12:26.011Z,5.30
2018-02-09T14:14:54.434Z,5.20
2018-02-09T14:17:21.984Z,4.90
2018-02-09T14:19:49.535Z,4.80
2018-02-09T14:22:17.552Z,4.80
2018-02-09T14:24:45.082Z,4.90
2018-02-09T14:27:12.623Z,4.80
2018-02-09T14:29:41.108Z,4.60
2018-02-09T14:32:08.733Z,4.60
2018-02-09T14:34:36.289Z,4.70
2018-02-09T14:37:03.849Z,4.60
2018-02-09T14:39:31.516Z,4.40
2018-02-09T14:41:59.103Z,4.40
2018-02-09T14:44:27.123Z,4.50
2018-02-09T14:46:55.352Z,4.60
2018-02-09T14:49:24.147Z,4.60
2018-02-09T14:51:52.139Z,4.60
2018-02-09T14:54:19.720Z,4.60
2018-02-09T14:56:47.285Z,4.60
2018-02-09T14:59:14.905Z,4.70
2018-02-09T15:01:42.513Z,4.60
2018-02-09T15:04:15.268Z,4.60
2018-02-09T15:06:43.480Z,4.40
2018-02-09T15:09:11.002Z,4.60
2018-02-09T15:11:40.083Z,4.70
2018-02-09T15:14:07.701Z,4.70
2018-02-09T15:16:35.666Z,4.70
2018-02-09T15:19:03.408Z,4.70
2018-02-09T15:21:31.007Z,4.80
2018-02-09T15:23:58.641Z,4.50
2018-02-09T15:26:26.337Z,4.50
2018-02-09T15:28:53.982Z,4.40
2018-02-09T15:31:21.886Z,4.40
2018-02-09T15:33:49.770Z,4.40
2018-02-09T15:36:18.628Z,4.40
2018-02-09T15:38:46.218Z,4.20
2018-02-09T15:41:13.923Z,4.00
2018-02-09T15:43:41.983Z,3.90
2018-02-09T15:46:11.754Z,4.00
2018-02-09T15:48:39.321Z,4.00
2018-02-09T15:51:06.954Z,4.20
2018-02-09T15:53:34.500Z,4.20
2018-02-09T15:56:02.754Z,4.10
2018-02-09T15:58:31.234Z,4.20
2018-02-09T16:00:59.533Z,4.30
2018-02-09T16:16:22.186Z,4.30
2018-02-09T16:18:49.770Z,3.90
2018-02-09T16:21:17.330Z,3.90
2018-02-09T16:23:44.903Z,3.90
2018-02-09T16:26:14.119Z,4.00
2018-02-09T16:28:41.705Z,4.00
2018-02-09T16:31:09.245Z,4.10
2018-02-09T16:33:36.818Z,4.20
2018-02-09T16:36:04.369Z,4.30
2018-02-09T16:38:31.927Z,4.40
2018-02-09T16:40:59.529Z,4.40
2018-02-09T16:43:27.099Z,4.40
2018-02-09T16:45:55.272Z,4.20
2018-02-09T16:48:24.481Z,4.10
2018-02-09T16:50:53.371Z,3.90
2018-02-09T16:53:20.953Z,3.80
2018-02-09T16:55:49.317Z,3.90
2018-02-09T16:58:17.585Z,3.90
2018-02-09T17:00:45.104Z,4.00
2018-02-09T17:03:13.692Z,4.00
2018-02-09T17:05:42.209Z,4.00
2018-02-09T17:08:10.386Z,4.00
2018-02-09T17:10:37.978Z,3.80
2018-02-09T17:13:05.587Z,3.90
2018-02-09T17:15:33.193Z,4.00
2018-02-09T17:18:00.824Z,4.10
2018-02-09T17:20:28.367Z,4.00
2018-02-09T17:22:55.898Z,4.10
2018-02-09T17:25:23.659Z,4.20
2018-02-09T17:27:51.713Z,4.00
2018-02-09T17:30:19.440Z,4.00
2018-02-09T17:32:47.028Z,4.10
2018-02-09T17:35:15.414Z,4.30
2018-02-09T17:37:42.941Z,4.20
2018-02-09T17:40:11.796Z,4.30
2018-02-09T17:42:40.154Z,4.30
2018-02-09T17:45:07.693Z,4.10
2018-02-09T17:47:36.759Z,4.00
2018-02-09T17:50:04.678Z,4.00
2018-02-09T17:52:32.813Z,3.90
2018-02-09T17:55:00.395Z,3.70
2018-02-09T17:57:30.367Z,3.60
2018-02-09T17:59:59.790Z,3.30
2018-02-09T18:02:28.623Z,3.40
2018-02-09T18:04:57.599Z,3.70
2018-02-09T18:07:27.287Z,3.70
2018-02-09T18:09:55.750Z,3.70
2018-02-09T18:12:24.654Z,3.50
2018-02-09T18:14:54.081Z,3.50
2018-02-09T18:17:28.601Z,3.60
2018-02-09T18:19:56.764Z,3.60
2018-02-09T18:22:25.626Z,3.50
2018-02-09T18:24:54.416Z,3.60
2018-02-09T18:27:24.543Z,3.70
2018-02-09T18:29:53.941Z,3.80
2018-02-09T18:32:22.602Z,3.90
2018-02-09T18:34:50.622Z,4.00
2018-02-09T18:37:19.186Z,4.00
2018-02-09T18:39:47.193Z,4.00
2018-02-09T18:42:17.870Z,3.80
2018-02-09T18:44:46.915Z,3.80
2018-02-09T18:47:16.967Z,3.70
2018-02-09T18:49:47.742Z,3.70
2018-02-09T18:52:16.232Z,3.80
2018-02-09T18:54:45.711Z,3.80
2018-02-09T18:57:13.358Z,3.90
2018-02-09T18:59:41.042Z,4.00
2018-02-09T19:02:08.642Z,4.00
2018-02-09T19:04:36.979Z,3.90
2018-02-09T19:07:04.571Z,3.90
2018-02-09T19:09:33.479Z,3.80
2018-02-09T19:12:01.853Z,3.80
2018-02-09T19:14:29.405Z,3.80
2018-02-09T19:16:57.723Z,3.90
2018-02-09T19:19:25.280Z,3.90
2018-02-09T19:21:52.822Z,3.90
2018-02-09T19:24:21.433Z,4.00
2018-02-09T19:26:49.015Z,4.00
2018-02-09T19:29:16.573Z,3.90
2018-02-09T19:31:44.154Z,3.70
2018-02-09T19:34:11.685Z,3.70
2018-02-09T19:36:39.255Z,3.70
2018-02-09T19:39:06.786Z,3.80
2018-02-09T19:41:34.388Z,3.80
2018-02-09T19:44:01.898Z,3.90
2018-02-09T19:46:30.326Z,3.90
2018-02-09T19:48:58.635Z,3.80
2018-02-09T19:51:26.221Z,3.80
2018-02-09T19:53:54.083Z,3.80
2018-02-09T19:56:21.654Z,3.90
2018-02-09T19:58:49.233Z,4.00
2018-02-09T20:01:16.783Z,4.00
2018-02-09T20:03:44.390Z,4.10
2018-02-09T20:06:11.984Z,3.90
2018-02-09T20:08:39.541Z,3.90
2018-02-09T20:11:07.104Z,3.80
2018-02-09T20:13:34.661Z,3.60
2018-02-09T20:16:03.939Z,3.80
2018-02-09T20:18:32.246Z,4.00
2018-02-09T20:20:59.831Z,4.00
2018-02-09T20:23:27.445Z,4.00
2018-02-09T20:25:55.840Z,4.10
2018-02-09T20:28:23.383Z,4.10
2018-02-09T20:30:50.948Z,4.20
2018-02-09T20:33:19.314Z,4.20
2018-02-09T20:35:47.614Z,4.20
2018-02-09T20:38:15.206Z,4.30
2018-02-09T20:40:42.758Z,4.30
2018-02-09T20:43:10.279Z,4.40
2018-02-09T20:45:38.619Z,4.50
2018-02-09T20:48:06.714Z,4.50
2018-02-09T20:50:35.015Z,4.50
2018-02-09T20:53:02.563Z,4.50
2018-02-09T20:55:30.098Z,4.50
2018-02-09T20:57:57.698Z,4.50
2018-02-09T21:00:25.286Z,4.40
2018-02-09T21:02:52.839Z,4.50
2018-02-09T21:05:20.428Z,4.60
2018-02-09T21:07:48.245Z,4.60
2018-02-09T21:10:15.884Z,4.60
2018-02-09T21:25:39.262Z,4.60
2018-02-09T21:28:06.860Z,4.20
2018-02-09T21:30:34.426Z,4.30
2018-02-09T21:33:02.003Z,4.20
2018-02-09T21:35:29.604Z,4.20
2018-02-09T21:37:57.135Z,4.30
2018-02-09T21:40:25.492Z,4.20
2018-02-09T21:42:53.094Z,4.20
2018-02-09T21:45:20.660Z,4.30
2018-02-09T21:47:48.194Z,4.30
2018-02-09T21:50:15.866Z,4.20
2018-02-09T21:52:43.429Z,4.20
2018-02-09T21:55:11.782Z,4.30
2018-02-09T21:57:39.415Z,4.30
2018-02-09T22:00:06.984Z,4.40
2018-02-09T22:02:35.058Z,4.40
2018-02-09T22:05:02.634Z,4.20
2018-02-09T22:07:30.311Z,4.30
2018-02-09T22:09:58.674Z,4.40
2018-02-09T22:12:27.088Z,4.40
2018-02-09T22:14:54.631Z,4.40
2018-02-09T22:17:22.220Z,4.50
2018-02-09T22:19:49.795Z,4.50
2018-02-09T22:22:18.150Z,4.40
2018-02-09T22:24:45.690Z,4.20
2018-02-09T22:27:13.405Z,4.20
2018-02-09T22:29:41.164Z,4.10
2018-02-09T22:32:08.714Z,4.00
2018-02-09T22:34:36.307Z,4.00
2018-02-09T22:37:03.839Z,4.00
2018-02-09T22:39:31.423Z,4.10
2018-02-09T22:41:58.951Z,4.10
2018-02-09T22:44:27.389Z,4.20
2018-02-09T22:46:54.981Z,4.30
2018-02-09T22:49:22.562Z,4.30
2018-02-09T22:51:50.132Z,4.30
2018-02-09T22:54:18.350Z,4.20
2018-02-09T22:56:46.238Z,4.30
2018-02-09T22:59:13.977Z,4.20
2018-02-09T23:01:42.315Z,4.10
2018-02-09T23:04:09.920Z,4.10
2018-02-09T23:06:38.313Z,4.10
2018-02-09T23:09:05.939Z,4.10
2018-02-09T23:11:33.454Z,4.10
2018-02-09T23:14:01.839Z,4.00
2018-02-09T23:16:29.404Z,4.00
2018-02-09T23:18:57.627Z,4.10
2018-02-09T23:21:25.150Z,4.10
2018-02-09T23:23:53.558Z,4.20
2018-02-09T23:26:21.177Z,3.90
2018-02-09T23:28:48.715Z,4.00
2018-02-09T23:31:16.275Z,3.80
2018-02-09T23:33:43.817Z,3.90
2018-02-09T23:36:12.755Z,4.10
2018-02-09T23:38:40.323Z,4.10
2018-02-09T23:41:07.851Z,4.20
2018-02-09T23:43:35.461Z,4.20
2018-02-09T23:46:03.021Z,4.20
2018-02-09T23:48:30.566Z,4.30
2018-02-09T23:50:58.126Z,4.10
2018-02-09T23:53:25.699Z,4.20
2018-02-09T23:55:53.290Z,4.30
2018-02-09T23:58:20.841Z,4.30
